Time;durP1;ratioP1;P1;durP2;ratioP2;P2;SDS_P1;SDS_P2;PMS_P1;PMS_P2;Temp;Humidity;BMP_temperature;BMP_pressure;BME280_temperature;BME280_humidity;BME280_pressure;Samples;Min_cycle;Max_cycle;Signal;HPM_P1;HPM_P2
2022/02/23 00:00:51;;;;;;;24.13;10.53;;;;;;;3.98;62.08;100530.84;123111;1105;104830;-79
2022/02/23 00:03:23;;;;;;;25.83;11.03;;;;;;;3.93;61.36;100537.45;123318;1106;104365;-78
2022/02/23 00:05:54;;;;;;;22.77;10.40;;;;;;;3.91;61.71;100533.84;123132;1105;104821;-79
2022/02/23 00:08:25;;;;;;;24.33;10.70;;;;;;;3.89;61.71;100538.05;123039;1105;104373;-80
2022/02/23 00:10:59;;;;;;;23.60;10.30;;;;;;;3.84;61.81;100539.47;123096;1105;104411;-80
2022/02/23 00:13:32;;;;;;;21.93;9.93;;;;;;;3.81;62.33;100536.69;123175;1105;104364;-80
2022/02/23 00:16:03;;;;;;;24.47;10.40;;;;;;;3.78;61.88;100538.26;123533;1105;104286;-80
2022/02/23 00:18:35;;;;;;;23.03;9.87;;;;;;;3.76;61.51;100539.88;123507;1105;104262;-80
2022/02/23 00:21:06;;;;;;;23.80;10.47;;;;;;;3.73;61.95;100538.79;123440;1105;104294;-79
2022/02/23 00:23:38;;;;;;;22.40;10.10;;;;;;;3.69;61.42;100539.38;123455;1105;104414;-79
2022/02/23 00:26:09;;;;;;;23.13;9.93;;;;;;;3.64;61.85;100545.98;123569;1104;104387;-80
2022/02/23 00:28:40;;;;;;;23.13;10.33;;;;;;;3.57;62.57;100542.11;123766;1105;104993;-81
2022/02/23 00:31:12;;;;;;;25.87;11.30;;;;;;;3.53;62.02;100540.11;123496;1105;104236;-80
2022/02/23 00:33:43;;;;;;;23.93;10.77;;;;;;;3.48;61.91;100552.78;123397;1105;104716;-79
2022/02/23 00:36:15;;;;;;;25.77;10.17;;;;;;;3.45;62.04;100539.61;123590;1105;104325;-80
2022/02/23 00:38:46;;;;;;;24.50;10.53;;;;;;;3.42;62.22;100542.89;123447;1105;104271;-80
2022/02/23 00:41:17;;;;;;;22.73;9.97;;;;;;;3.39;62.76;100542.69;123515;1105;104373;-80
2022/02/23 00:43:49;;;;;;;24.07;10.80;;;;;;;3.37;62.00;100546.89;123405;1104;104341;-79
2022/02/23 00:46:20;;;;;;;23.47;10.30;;;;;;;3.33;62.17;100541.41;123311;1103;104363;-79
2022/02/23 00:48:53;;;;;;;22.93;10.23;;;;;;;3.29;62.09;100548.09;123288;1106;104320;-79
2022/02/23 00:51:25;;;;;;;23.13;10.27;;;;;;;3.27;62.70;100538.41;123380;1105;104364;-79
2022/02/23 00:53:57;;;;;;;24.57;10.73;;;;;;;3.26;62.35;100539.20;123365;1106;104294;-79
2022/02/23 00:56:28;;;;;;;24.53;10.43;;;;;;;3.22;62.90;100545.89;123290;1105;104335;-79
2022/02/23 00:59:00;;;;;;;22.93;10.00;;;;;;;3.16;63.09;100548.08;123459;1105;104248;-79
2022/02/23 01:01:31;;;;;;;24.70;11.27;;;;;;;3.10;62.20;100546.00;123411;1105;104313;-80
2022/02/23 01:04:03;;;;;;;26.13;10.70;;;;;;;3.04;62.82;100546.48;123360;1105;104425;-80
2022/02/23 01:06:34;;;;;;;27.07;10.67;;;;;;;3.00;63.04;100549.65;123637;1103;104246;-80
2022/02/23 01:09:06;;;;;;;23.20;10.70;;;;;;;2.98;62.64;100550.37;123598;1105;104233;-79
2022/02/23 01:11:39;;;;;;;24.97;10.43;;;;;;;2.95;63.17;100552.75;123484;1105;104258;-80
2022/02/23 01:14:11;;;;;;;27.17;11.50;;;;;;;2.92;62.51;100549.95;123439;1105;104227;-79
2022/02/23 01:16:43;;;;;;;23.20;10.75;;;;;;;2.92;62.50;100557.73;123364;1105;104332;-79
2022/02/23 01:19:15;;;;;;;24.67;10.33;;;;;;;2.90;62.97;100557.62;123293;1105;104380;-80
2022/02/23 01:21:47;;;;;;;25.83;11.27;;;;;;;2.88;62.59;100556.60;123286;1105;104319;-80
2022/02/23 01:24:18;;;;;;;25.63;10.90;;;;;;;2.84;63.13;100562.39;123346;1105;104316;-79
2022/02/23 01:26:50;;;;;;;24.50;11.40;;;;;;;2.79;62.77;100563.75;123250;1104;104435;-80
2022/02/23 01:29:21;;;;;;;25.13;11.17;;;;;;;2.73;62.46;100560.75;123222;1105;104363;-79
2022/02/23 01:31:52;;;;;;;23.60;11.17;;;;;;;2.69;63.19;100560.53;123184;1104;104369;-79
2022/02/23 01:34:24;;;;;;;25.03;11.30;;;;;;;2.67;63.31;100562.14;123282;1106;104265;-79
2022/02/23 01:36:55;;;;;;;21.40;9.63;;;;;;;2.64;63.25;100561.04;123257;1105;104264;-79
2022/02/23 01:39:29;;;;;;;24.23;10.43;;;;;;;2.63;63.29;100569.59;123253;1105;104322;-80
2022/02/23 01:42:00;;;;;;;23.40;10.65;;;;;;;2.62;62.63;100567.81;123167;1105;104184;-79
2022/02/23 01:44:32;;;;;;;22.93;10.30;;;;;;;2.61;63.33;100572.08;123336;1104;104359;-80
2022/02/23 01:47:04;;;;;;;23.37;11.43;;;;;;;2.60;63.28;100574.56;123251;1105;104267;-79
2022/02/23 01:49:35;;;;;;;25.43;10.47;;;;;;;2.59;63.33;100577.97;123196;1105;104268;-80
2022/02/23 01:52:08;;;;;;;25.63;10.93;;;;;;;2.54;63.63;100579.33;123257;1106;104286;-80
2022/02/23 01:54:40;;;;;;;23.80;11.03;;;;;;;2.51;63.40;100588.69;123169;1105;104739;-79
2022/02/23 01:57:11;;;;;;;25.10;10.90;;;;;;;2.49;63.32;100582.52;123250;1105;104370;-80
2022/02/23 01:59:42;;;;;;;25.05;10.55;;;;;;;2.48;63.42;100585.89;123268;1105;104357;-79
2022/02/23 02:02:14;;;;;;;25.43;11.40;;;;;;;2.46;64.25;100582.30;123317;1105;104287;-79
2022/02/23 02:04:45;;;;;;;23.47;10.60;;;;;;;2.44;63.42;100582.98;123239;1105;117827;-79
2022/02/23 02:07:17;;;;;;;24.47;10.70;;;;;;;2.41;63.47;100578.47;123192;1105;104287;-79
2022/02/23 02:09:48;;;;;;;22.27;11.00;;;;;;;2.38;63.72;100580.84;123223;1103;104345;-79
2022/02/23 02:12:20;;;;;;;25.75;11.65;;;;;;;2.35;63.57;100585.81;123284;1105;104371;-80
2022/02/23 02:14:51;;;;;;;25.57;11.30;;;;;;;2.32;63.71;100594.29;123161;1105;104333;-79
2022/02/23 02:17:22;;;;;;;24.07;11.83;;;;;;;2.29;64.00;100581.12;123273;1105;104531;-80
2022/02/23 02:19:55;;;;;;;23.43;12.13;;;;;;;2.25;63.85;100584.28;123323;1105;104319;-79
2022/02/23 02:22:29;;;;;;;27.53;13.30;;;;;;;2.23;63.80;100590.13;123160;1104;104348;-79
2022/02/23 02:25:01;;;;;;;26.07;12.50;;;;;;;2.20;64.15;100589.91;123155;1105;104284;-79
2022/02/23 02:27:32;;;;;;;23.20;11.90;;;;;;;2.14;63.93;100592.99;123388;1105;104271;-80
2022/02/23 02:30:04;;;;;;;26.90;13.03;;;;;;;2.10;63.59;100599.66;123339;1105;104297;-79
2022/02/23 02:32:36;;;;;;;24.47;12.00;;;;;;;2.09;63.87;100595.25;123265;1105;104421;-79
2022/02/23 02:35:09;;;;;;;28.27;12.63;;;;;;;2.07;63.60;100609.78;123164;1105;104239;-80
2022/02/23 02:37:40;;;;;;;23.63;11.10;;;;;;;2.04;63.79;100600.88;123182;1105;104211;-79
2022/02/23 02:40:13;;;;;;;25.17;11.90;;;;;;;2.00;63.80;100614.41;123159;1105;104417;-80
2022/02/23 02:42:45;;;;;;;25.60;11.63;;;;;;;1.93;64.13;100613.05;123234;1105;104315;-79
2022/02/23 02:45:16;;;;;;;23.77;11.27;;;;;;;1.89;64.14;100618.81;123120;1105;104322;-80
2022/02/23 02:47:47;;;;;;;25.53;11.67;;;;;;;1.85;64.43;100629.72;123212;1105;104267;-79
2022/02/23 02:50:19;;;;;;;25.35;10.35;;;;;;;1.80;64.66;100621.62;123221;1105;104259;-79
2022/02/23 02:52:50;;;;;;;26.30;10.77;;;;;;;1.76;64.55;100637.70;123138;1105;104341;-79
2022/02/23 02:55:22;;;;;;;26.00;10.97;;;;;;;1.71;64.80;100632.20;123123;1104;104392;-80
2022/02/23 02:57:53;;;;;;;24.73;10.90;;;;;;;1.66;64.68;100643.91;123276;1105;104324;-78
2022/02/23 03:00:25;;;;;;;24.33;10.83;;;;;;;1.60;65.12;100644.34;123123;1105;104290;-79
2022/02/23 03:02:56;;;;;;;23.20;10.80;;;;;;;1.57;65.27;100646.73;123221;1105;104740;-79
2022/02/23 03:05:29;;;;;;;24.53;10.33;;;;;;;1.51;64.93;100643.69;123170;1105;104257;-80
2022/02/23 03:08:00;;;;;;;23.10;10.05;;;;;;;1.46;65.04;100646.71;123327;1105;104214;-80
2022/02/23 03:10:32;;;;;;;24.20;10.63;;;;;;;1.41;65.15;100646.37;123181;1105;104299;-79
2022/02/23 03:13:03;;;;;;;22.27;10.80;;;;;;;1.38;65.02;100651.31;123256;1105;104353;-80
2022/02/23 03:15:35;;;;;;;24.33;10.43;;;;;;;1.33;64.94;100648.38;123353;1105;104293;-80
2022/02/23 03:18:07;;;;;;;26.30;10.97;;;;;;;1.30;65.75;100661.08;123084;1105;104275;-79
2022/02/23 03:20:38;;;;;;;26.27;11.73;;;;;;;1.27;65.24;100663.43;123166;1105;104255;-79
2022/02/23 03:23:10;;;;;;;27.23;11.43;;;;;;;1.23;65.29;100663.97;123300;1104;104364;-80
2022/02/23 03:25:41;;;;;;;23.90;10.53;;;;;;;1.21;65.44;100662.97;123235;1105;104284;-79
2022/02/23 03:28:13;;;;;;;24.40;10.75;;;;;;;1.20;65.30;100662.08;123239;1104;104293;-79
2022/02/23 03:30:44;;;;;;;24.87;10.37;;;;;;;1.19;65.33;100670.61;123242;1105;104242;-79
2022/02/23 03:33:16;;;;;;;23.53;10.20;;;;;;;1.17;65.61;100674.77;123131;1105;104336;-79
2022/02/23 03:35:48;;;;;;;22.97;10.63;;;;;;;1.15;65.54;100672.84;123143;1105;104325;-79
2022/02/23 03:38:20;;;;;;;22.43;9.93;;;;;;;1.14;65.53;100673.61;123247;1103;104287;-79
2022/02/23 03:40:51;;;;;;;25.63;10.63;;;;;;;1.08;65.33;100674.07;123151;1103;104457;-80
2022/02/23 03:43:22;;;;;;;21.83;9.63;;;;;;;1.05;65.79;100666.97;123080;1104;104290;-79
2022/02/23 03:45:54;;;;;;;22.53;9.60;;;;;;;1.02;65.79;100671.91;123143;1105;104287;-79
2022/02/23 03:48:25;;;;;;;25.53;10.27;;;;;;;1.02;65.55;100671.91;123213;1105;104338;-80
2022/02/23 03:50:56;;;;;;;25.13;9.97;;;;;;;1.00;65.39;100663.14;123134;1105;104284;-79
2022/02/23 03:53:28;;;;;;;22.10;9.05;;;;;;;1.03;65.61;100670.24;123079;1105;104236;-78
2022/02/23 03:56:00;;;;;;;21.40;9.80;;;;;;;1.04;66.07;100677.19;123121;1105;104363;-79
2022/02/23 03:58:32;;;;;;;22.75;9.70;;;;;;;1.01;66.03;100672.71;123347;1105;104339;-79
2022/02/23 04:01:04;;;;;;;23.50;10.03;;;;;;;0.96;66.25;100671.44;123428;1103;104297;-79
2022/02/23 04:03:35;;;;;;;22.00;9.87;;;;;;;0.96;66.36;100676.60;123594;1105;104286;-80
2022/02/23 04:06:06;;;;;;;27.20;10.60;;;;;;;0.94;66.39;100678.17;123616;1105;104361;-79
2022/02/23 04:08:38;;;;;;;26.87;10.20;;;;;;;0.89;66.26;100680.41;123730;1105;104223;-79
2022/02/23 04:11:09;;;;;;;24.67;12.00;;;;;;;0.88;66.00;100685.45;123566;1105;104466;-79
2022/02/23 04:13:41;;;;;;;24.10;11.23;;;;;;;0.83;66.48;100685.09;123490;1105;104187;-80
2022/02/23 04:16:13;;;;;;;24.30;10.63;;;;;;;0.79;66.52;100684.75;123462;1105;104287;-79
2022/02/23 04:18:45;;;;;;;26.90;10.50;;;;;;;0.76;66.69;100682.81;123336;1105;104355;-80
2022/02/23 04:21:18;;;;;;;26.23;10.95;;;;;;;0.73;66.37;100681.69;123227;1105;104396;-80
2022/02/23 04:24:03;;;;;;;26.55;11.05;;;;;;;0.70;66.12;100683.26;123142;1105;104357;-80
2022/02/23 04:26:36;;;;;;;27.97;11.87;;;;;;;0.72;66.30;100678.21;123203;1105;104363;-80
2022/02/23 04:29:09;;;;;;;22.40;10.00;;;;;;;0.74;66.30;100683.50;123232;1105;104290;-80
2022/02/23 04:31:43;;;;;;;26.30;11.77;;;;;;;0.73;66.18;100687.73;123264;1105;104294;-81
2022/02/23 04:34:14;;;;;;;24.13;11.47;;;;;;;0.71;66.78;100697.95;123250;1105;104709;-80
2022/02/23 04:36:46;;;;;;;30.10;11.67;;;;;;;0.66;66.42;100700.98;123152;1105;104652;-80
2022/02/23 04:39:17;;;;;;;24.83;11.50;;;;;;;0.66;66.31;100713.89;123159;1105;104249;-80
2022/02/23 04:41:49;;;;;;;24.10;11.00;;;;;;;0.67;66.33;100721.76;123259;1105;104237;-80
2022/02/23 04:44:27;;;;;;;25.20;10.70;;;;;;;0.73;66.40;100723.02;123349;1105;104309;-80
2022/02/23 04:46:59;;;;;;;25.43;10.73;;;;;;;0.77;66.28;100730.23;123416;1103;104274;-81
2022/02/23 04:49:31;;;;;;;26.47;11.17;;;;;;;0.82;66.28;100729.79;123393;1105;104287;-80
2022/02/23 04:52:02;;;;;;;23.93;10.87;;;;;;;0.87;66.19;100737.90;123390;1105;104313;-80
2022/02/23 04:54:34;;;;;;;28.53;11.77;;;;;;;0.86;66.53;100741.28;123166;1104;104363;-81
2022/02/23 04:57:07;;;;;;;25.37;10.80;;;;;;;0.83;66.70;100741.05;123129;1105;105477;-80
2022/02/23 04:59:40;;;;;;;27.57;11.47;;;;;;;0.77;67.27;100751.79;123333;1105;104296;-81
2022/02/23 05:02:11;;;;;;;28.47;11.73;;;;;;;0.70;66.48;100746.91;123484;1105;104283;-80
2022/02/23 05:04:43;;;;;;;32.37;11.03;;;;;;;0.67;66.58;100760.50;123274;1104;104479;-80
2022/02/23 05:07:16;;;;;;;24.97;10.90;;;;;;;0.63;66.70;100768.77;123141;1105;104316;-80
2022/02/23 05:09:50;;;;;;;31.55;12.13;;;;;;;0.60;66.90;100771.11;122975;1105;104469;-79
2022/02/23 05:12:24;;;;;;;29.02;11.95;;;;;;;0.57;66.65;100763.13;122976;1105;104261;-80
2022/02/23 05:14:58;;;;;;;24.77;12.07;;;;;;;0.54;67.34;100768.04;123902;1105;104232;-80
2022/02/23 05:17:30;;;;;;;27.53;12.07;;;;;;;0.54;67.05;100768.04;123617;1105;104339;-80
2022/02/23 05:20:03;;;;;;;29.63;12.13;;;;;;;0.57;67.88;100781.20;123892;1105;104207;-80
2022/02/23 05:22:34;;;;;;;26.00;11.63;;;;;;;0.61;67.54;100792.66;123793;1105;104750;-80
2022/02/23 05:25:10;;;;;;;29.73;11.83;;;;;;;0.63;67.86;100786.86;123625;1105;104290;-80
2022/02/23 05:27:42;;;;;;;24.43;11.50;;;;;;;0.68;67.37;100790.69;123390;1105;104437;-80
2022/02/23 05:30:14;;;;;;;27.33;12.37;;;;;;;0.74;67.81;100797.16;123602;1105;104229;-80
2022/02/23 05:32:46;;;;;;;30.83;12.87;;;;;;;0.81;67.61;100795.18;123638;1105;104271;-81
2022/02/23 05:35:18;;;;;;;29.93;12.70;;;;;;;0.93;67.60;100795.22;123279;1104;104258;-80
2022/02/23 05:37:49;;;;;;;31.50;13.95;;;;;;;1.04;67.64;100803.83;123474;1105;104181;-80
2022/02/23 05:40:21;;;;;;;32.73;14.13;;;;;;;1.17;68.06;100805.67;123706;1105;104374;-80
2022/02/23 05:42:54;;;;;;;33.57;14.33;;;;;;;1.30;67.58;100799.80;123568;1105;104434;-80
2022/02/23 05:45:26;;;;;;;30.47;13.70;;;;;;;1.42;68.03;100811.98;123456;1105;104361;-80
2022/02/23 05:47:57;;;;;;;29.00;13.10;;;;;;;1.54;67.65;100803.35;123202;1105;104367;-80
2022/02/23 05:50:29;;;;;;;31.23;13.30;;;;;;;1.66;67.46;100806.87;123604;1105;104236;-80
2022/02/23 05:53:03;;;;;;;32.97;13.03;;;;;;;1.82;67.46;100805.45;123549;1105;104361;-80
2022/02/23 05:55:36;;;;;;;29.70;12.40;;;;;;;1.93;67.52;100805.48;123359;1105;104322;-81
2022/02/23 05:58:08;;;;;;;29.47;13.13;;;;;;;2.05;67.50;100810.66;123682;1105;104900;-80
2022/02/23 06:00:40;;;;;;;27.07;11.93;;;;;;;2.14;67.62;100807.88;123810;1105;104267;-81
2022/02/23 06:03:11;;;;;;;26.57;11.77;;;;;;;2.20;67.67;100809.99;123929;1105;104765;-80
2022/02/23 06:05:43;;;;;;;24.87;10.77;;;;;;;2.26;67.56;100810.45;123801;1105;104255;-78
2022/02/23 06:08:15;;;;;;;24.80;10.67;;;;;;;2.33;67.36;100800.66;123124;1105;104370;-80
2022/02/23 06:10:47;;;;;;;26.75;10.55;;;;;;;2.39;67.52;100810.58;123398;1105;104366;-79
2022/02/23 06:13:18;;;;;;;24.20;10.53;;;;;;;2.41;67.41;100813.27;122989;1105;104316;-79
2022/02/23 06:15:52;;;;;;;25.20;11.07;;;;;;;2.39;67.39;100807.98;123445;1105;104316;-79
2022/02/23 06:18:23;;;;;;;26.37;10.80;;;;;;;2.40;67.05;100804.61;123671;1105;104342;-81
2022/02/23 06:20:55;;;;;;;26.03;12.03;;;;;;;2.47;67.14;100814.61;123460;1105;104376;-79
2022/02/23 06:23:28;;;;;;;25.50;11.07;;;;;;;2.56;67.48;100810.91;123154;1105;104392;-80
2022/02/23 06:26:02;;;;;;;25.50;11.93;;;;;;;2.67;67.77;100818.66;123608;1106;104261;-82
2022/02/23 06:28:34;;;;;;;;;;;;;;;2.78;67.58;100816.84;123824;1103;104344;-81
2022/02/23 06:31:06;;;;;;;34.37;14.47;;;;;;;2.88;67.50;100821.91;123810;1105;104476;-80
2022/02/23 06:33:39;;;;;;;30.33;15.03;;;;;;;2.98;66.94;100832.94;124012;1105;104290;-78
2022/02/23 06:36:13;;;;;;;27.17;12.97;;;;;;;3.06;67.06;100821.41;124238;1105;104316;-79
2022/02/23 06:38:47;;;;;;;32.38;13.05;;;;;;;3.09;66.85;100829.41;124102;1105;104536;-81
2022/02/23 06:41:32;;;;;;;35.48;14.70;;;;;;;3.20;67.46;100836.23;123780;1105;104313;-80
2022/02/23 06:44:08;;;;;;;32.97;12.30;;;;;;;3.29;67.11;100829.89;123846;1105;104291;-81
2022/02/23 06:46:40;;;;;;;30.73;12.93;;;;;;;3.32;66.71;100825.84;123755;1104;104387;-81
2022/02/23 06:49:16;;;;;;;29.50;12.73;;;;;;;3.36;67.03;100820.05;124069;1105;104348;-81
2022/02/23 06:52:01;;;;;;;30.37;12.70;;;;;;;3.41;66.36;100825.55;124151;1105;104178;-81
2022/02/23 06:54:43;;;;;;;27.70;12.20;;;;;;;3.44;66.83;100817.09;124064;1105;104181;-80
2022/02/23 07:00:28;;;;;;;27.50;11.77;;;;;;;3.58;66.43;100818.94;123744;1105;104265;-79
2022/02/23 07:03:06;;;;;;;26.00;11.63;;;;;;;3.66;66.93;100822.06;123809;1105;104274;-81
2022/02/23 07:05:45;;;;;;;30.17;12.43;;;;;;;3.71;65.96;100824.19;123132;1105;104286;-80
2022/02/23 07:11:52;;;;;;;28.37;13.73;;;;;;;3.75;65.75;100827.88;123776;1105;119672;-82
2022/02/23 07:14:42;;;;;;;27.90;12.53;;;;;;;3.75;66.43;100820.09;123454;1105;104664;-81
2022/02/23 07:17:38;;;;;;;34.07;14.27;;;;;;;3.78;66.40;100833.28;124233;1105;104280;-82
2022/02/23 07:20:15;;;;;;;25.60;13.07;;;;;;;3.76;66.29;100832.29;124408;1104;104271;-81
2022/02/23 07:23:09;;;;;;;32.63;14.43;;;;;;;3.75;65.92;100818.39;124076;1105;104283;-82
2022/02/23 07:25:46;;;;;;;30.07;13.20;;;;;;;3.81;65.92;100817.03;123541;1105;104258;-82
2022/02/23 07:29:12;;;;;;;32.90;14.70;;;;;;;3.87;65.66;100817.45;123820;1105;104373;-82
2022/02/23 07:31:58;;;;;;;35.10;15.85;;;;;;;3.95;65.72;100811.06;123576;1104;104390;-81
2022/02/23 07:35:17;;;;;;;31.20;14.43;;;;;;;4.02;65.55;100817.55;123615;1105;104792;-80
2022/02/23 07:38:47;;;;;;;33.93;14.77;;;;;;;4.16;65.25;100806.41;122925;1108;104473;-83
2022/02/23 07:41:56;;;;;;;;;;;;;;;;;;;;;
2022/02/23 07:44:33;;;;;;;29.07;12.73;;;;;;;4.34;65.55;100792.83;123223;1109;104368;-82
2022/02/23 07:47:07;;;;;;;28.40;11.90;;;;;;;4.55;65.44;100808.89;123354;1108;104374;-83
2022/02/23 07:49:56;;;;;;;;;;;;;;;;;;;;;
2022/02/23 07:52:49;;;;;;;32.23;13.83;;;;;;;4.85;65.06;100813.47;123841;1109;104197;-81
2022/02/23 07:55:29;;;;;;;30.57;14.50;;;;;;;4.99;65.12;100816.06;123920;1109;103138;-82
2022/02/23 07:58:06;;;;;;;29.83;14.07;;;;;;;5.10;64.47;100814.13;123796;1109;104449;-82
2022/02/23 08:00:52;;;;;;;32.53;14.50;;;;;;;5.22;64.33;100814.91;123602;1109;105590;-82
2022/02/23 08:03:32;;;;;;;34.97;15.00;;;;;;;5.34;64.25;100815.63;123363;1109;104380;-81
2022/02/23 08:06:45;;;;;;;;;;;;;;;;;;;;;
2022/02/23 08:09:41;;;;;;;;;;;;;;;;;;;;;
2022/02/23 08:12:29;;;;;;;30.00;13.40;;;;;;;5.75;63.54;100817.27;123824;1105;104338;-83
2022/02/23 08:21:37;;;;;;;29.35;12.90;;;;;;;6.17;62.31;100792.78;123513;1104;104287;-82
2022/02/23 08:24:11;;;;;;;27.27;12.17;;;;;;;6.26;62.95;100803.73;123642;1105;104258;-83
2022/02/23 08:26:46;;;;;;;27.85;12.50;;;;;;;6.34;62.94;100804.19;123743;1106;104182;-80
2022/02/23 08:29:21;;;;;;;26.23;11.37;;;;;;;6.43;62.51;100802.99;123956;1105;104261;-80
2022/02/23 08:31:57;;;;;;;26.48;11.12;;;;;;;6.52;62.34;100793.92;123850;1105;104510;-80
2022/02/23 08:34:44;;;;;;;24.77;11.17;;;;;;;6.64;62.41;100797.22;123733;1105;104251;-82
2022/02/23 08:37:18;;;;;;;25.97;11.27;;;;;;;6.73;62.25;100796.82;123668;1105;104309;-81
2022/02/23 08:39:56;;;;;;;22.30;9.00;;;;;;;6.85;62.13;100792.29;123627;1105;104249;-83
2022/02/23 08:45:57;;;;;;;22.63;9.60;;;;;;;7.03;62.04;100789.80;123513;1106;104283;-83
2022/02/23 08:48:49;;;;;;;22.67;10.53;;;;;;;7.14;61.54;100791.28;123166;1106;105067;-83
2022/02/23 08:51:36;;;;;;;29.00;10.83;;;;;;;7.23;60.99;100787.36;123071;1105;104721;-80
2022/02/23 08:54:35;;;;;;;23.47;10.00;;;;;;;7.29;61.68;100790.30;123527;1105;107339;-83
2022/02/23 08:57:58;;;;;;;22.20;10.80;;;;;;;7.45;61.22;100797.22;123070;1105;104610;-82
2022/02/23 09:01:02;;;;;;;22.17;10.10;;;;;;;7.56;60.88;100794.38;123481;1105;104284;-82
2022/02/23 09:04:02;;;;;;;24.77;9.63;;;;;;;7.68;60.46;100803.66;123211;1106;104399;-84
2022/02/23 09:06:44;;;;;;;25.90;8.83;;;;;;;7.81;60.12;100806.11;123204;1105;104342;-82
2022/02/23 09:09:21;;;;;;;22.93;9.33;;;;;;;7.86;59.45;100806.34;123072;1105;104331;-83
2022/02/23 09:12:29;;;;;;;20.90;8.20;;;;;;;7.90;58.63;100809.20;123178;1106;104352;-83
2022/02/23 09:15:06;;;;;;;18.25;6.87;;;;;;;7.96;57.90;100799.86;123461;1105;111671;-82
2022/02/23 09:17:44;;;;;;;15.00;5.95;;;;;;;8.03;58.43;100799.37;123145;1105;104297;-83
2022/02/23 09:20:29;;;;;;;14.87;5.13;;;;;;;8.09;57.75;100794.45;123048;1105;104307;-82
2022/02/23 09:23:10;;;;;;;10.30;4.37;;;;;;;8.17;57.15;100792.23;123126;1108;104405;-81
2022/02/23 09:25:50;;;;;;;16.73;5.77;;;;;;;8.23;57.13;100796.03;122812;1109;104823;-82
2022/02/23 09:28:25;;;;;;;15.20;5.65;;;;;;;8.28;56.53;100786.69;123361;1109;104373;-81
2022/02/23 09:31:15;;;;;;;12.30;5.87;;;;;;;8.38;56.04;100793.30;123355;1105;104299;-80
2022/02/23 09:34:03;;;;;;;16.40;6.95;;;;;;;8.46;56.19;100791.05;122968;1105;104428;-83
2022/02/23 09:37:07;;;;;;;;;;;;;;;;;;;;;
2022/02/23 09:40:09;;;;;;;;;;;;;;;;;;;;;
2022/02/23 09:42:50;;;;;;;11.83;4.57;;;;;;;8.77;52.27;100789.92;123904;1105;104667;-81
2022/02/23 09:45:25;;;;;;;14.57;5.00;;;;;;;8.81;53.86;100782.30;123540;1105;104293;-82
2022/02/23 09:48:05;;;;;;;11.40;5.20;;;;;;;8.86;53.35;100792.09;123457;1105;104486;-82
2022/02/23 09:50:53;;;;;;;12.37;4.97;;;;;;;8.92;53.43;100785.41;123226;1105;104415;-83
2022/02/23 09:53:38;;;;;;;14.87;5.57;;;;;;;8.97;52.86;100780.39;123571;1106;104354;-82
2022/02/23 09:56:22;;;;;;;12.30;4.87;;;;;;;9.02;53.34;100777.99;123242;1105;104329;-79
2022/02/23 09:59:12;;;;;;;14.53;5.33;;;;;;;9.04;52.20;100771.09;123632;1105;104379;-82
2022/02/23 10:02:03;;;;;;;13.23;5.20;;;;;;;9.12;53.88;100772.37;123123;1105;104354;-79
2022/02/23 10:04:41;;;;;;;16.60;5.63;;;;;;;9.21;52.62;100762.31;122988;1105;104395;-79
2022/02/23 10:07:20;;;;;;;12.70;4.73;;;;;;;9.25;53.37;100755.48;123607;1105;104365;-78
2022/02/23 10:10:00;;;;;;;16.33;5.73;;;;;;;9.32;53.14;100753.21;123143;1105;104239;-79
2022/02/23 10:12:58;;;;;;;15.43;5.83;;;;;;;9.39;53.35;100750.87;123844;1105;104262;-81
2022/02/23 10:15:42;;;;;;;15.00;5.03;;;;;;;9.48;51.71;100749.55;123810;1106;104485;-79
2022/02/23 10:18:39;;;;;;;12.50;5.60;;;;;;;9.50;52.67;100746.99;124136;1105;104338;-80
2022/02/23 10:21:19;;;;;;;11.77;5.00;;;;;;;9.57;51.93;100738.58;124438;1105;104379;-81
2022/02/23 10:24:15;;;;;;;11.93;4.40;;;;;;;9.60;51.77;100733.48;124402;1105;104296;-81
2022/02/23 10:27:00;;;;;;;11.45;4.75;;;;;;;9.63;51.74;100730.07;124435;1106;104245;-82
2022/02/23 10:29:53;;;;;;;14.17;5.10;;;;;;;9.74;51.17;100727.91;124261;1105;104338;-82
2022/02/23 10:32:31;;;;;;;13.10;4.20;;;;;;;9.80;51.44;100728.17;124203;1105;102742;-82
2022/02/23 10:35:11;;;;;;;12.53;4.80;;;;;;;9.84;51.39;100722.25;123197;1108;104443;-80
2022/02/23 10:37:45;;;;;;;14.17;4.97;;;;;;;9.88;51.15;100724.17;123440;1108;104837;-80
2022/02/23 10:40:18;;;;;;;15.30;5.05;;;;;;;9.89;50.75;100728.56;123225;1108;104249;-80
2022/02/23 10:42:52;;;;;;;11.63;4.90;;;;;;;9.90;50.72;100722.50;123211;1109;104307;-80
2022/02/23 10:45:34;;;;;;;11.37;4.83;;;;;;;9.96;50.58;100725.38;123268;1107;104421;-81
2022/02/23 10:48:10;;;;;;;12.73;4.23;;;;;;;9.97;51.14;100719.32;123963;1108;104191;-81
2022/02/23 10:50:57;;;;;;;10.57;4.50;;;;;;;10.01;50.27;100710.73;123433;1108;104433;-80
2022/02/23 10:53:32;;;;;;;13.20;4.90;;;;;;;10.15;50.79;100707.80;124024;1105;104354;-80
2022/02/23 10:56:30;;;;;;;10.17;4.50;;;;;;;10.28;50.96;100703.92;124183;1105;103931;-82
2022/02/23 10:59:24;;;;;;;15.63;4.97;;;;;;;10.16;50.82;100696.45;124084;1105;104319;-80
2022/02/23 11:02:13;;;;;;;11.83;4.57;;;;;;;10.10;50.72;100698.82;123389;1105;104227;-79
2022/02/23 11:04:47;;;;;;;13.83;4.87;;;;;;;10.08;51.15;100696.13;123549;1105;104714;-78
2022/02/23 11:07:21;;;;;;;12.37;4.60;;;;;;;10.07;50.92;100692.62;123812;1105;104284;-81
2022/02/23 11:10:18;;;;;;;12.53;4.70;;;;;;;10.06;50.62;100688.20;123175;1105;104374;-79
2022/02/23 11:12:56;;;;;;;16.77;4.77;;;;;;;10.04;50.49;100687.27;123129;1105;104258;-80
2022/02/23 11:15:31;;;;;;;14.00;4.40;;;;;;;10.05;50.49;100683.81;123338;1106;104338;-80
2022/02/23 11:18:05;;;;;;;;;;;;;;;10.12;49.93;100681.45;123661;1105;104230;-81
2022/02/23 11:20:53;;;;;;;;;;;;;;;10.20;49.61;100674.77;124507;1105;102585;-82
2022/02/23 11:23:30;;;;;;;11.70;4.40;;;;;;;10.25;50.70;100674.13;123792;1105;104228;-78
2022/02/23 11:26:15;;;;;;;10.57;4.20;;;;;;;10.32;50.54;100669.12;123837;1105;104294;-79
2022/02/23 11:31:42;;;;;;;10.95;4.50;;;;;;;10.40;49.82;100660.74;123655;1105;104207;-79
2022/02/23 11:34:19;;;;;;;10.63;4.60;;;;;;;10.43;49.76;100658.23;124744;1105;102248;-80
2022/02/23 11:36:53;;;;;;;14.35;4.90;;;;;;;10.48;50.03;100655.79;124172;1106;103554;-81
2022/02/23 11:39:30;;;;;;;13.50;5.53;;;;;;;10.54;50.37;100655.14;125175;1104;102503;-80
2022/02/23 11:42:10;;;;;;;13.65;4.90;;;;;;;10.53;48.51;100642.84;125037;1106;104361;-82
2022/02/23 11:44:50;;;;;;;13.75;5.00;;;;;;;10.51;49.29;100653.28;124848;1105;104268;-82
2022/02/23 11:47:26;;;;;;;14.27;5.00;;;;;;;10.48;47.98;100649.66;124401;1105;102761;-82
2022/02/23 11:50:04;;;;;;;16.33;5.07;;;;;;;10.45;48.15;100641.67;124102;1105;102531;-81
2022/02/23 11:52:47;;;;;;;14.93;5.37;;;;;;;10.50;48.60;100642.73;123934;1104;104261;-82
2022/02/23 11:55:25;;;;;;;17.83;5.40;;;;;;;10.56;48.62;100641.22;123853;1105;104331;-81
2022/02/23 12:02:13;;;;;;;18.97;6.40;;;;;;;10.73;48.68;100627.86;123247;1105;104540;-83
2022/02/23 12:05:34;;;;;;;15.33;5.30;;;;;;;10.88;47.77;100623.17;122940;1105;104357;-83
2022/02/23 12:08:24;;;;;;;12.73;4.70;;;;;;;10.96;47.59;100618.20;123820;1105;104448;-82
2022/02/23 12:11:35;;;;;;;11.80;4.70;;;;;;;11.07;47.41;100611.59;123737;1105;104470;-81
2022/02/23 12:14:46;;;;;;;11.85;4.65;;;;;;;11.18;47.41;100619.84;122949;1104;104297;-83
2022/02/23 12:17:55;;;;;;;15.90;5.70;;;;;;;11.32;47.47;100617.70;122991;1105;104239;-82
2022/02/23 12:21:04;;;;;;;12.67;5.60;;;;;;;11.39;46.97;100619.72;123639;1105;104478;-82
2022/02/23 12:23:45;;;;;;;10.37;4.37;;;;;;;11.48;46.91;100620.03;123210;1105;104450;-81